sensor_id;sensor_type;location;lat;lon;timestamp;temperature;humidity
14252;DHT22;7210;51.502;10.722;2022-07-23T00:00:46;17.40;1.00
14252;DHT22;7210;51.502;10.722;2022-07-23T00:03:13;17.40;1.00
14252;DHT22;7210;51.502;10.722;2022-07-23T00:05:41;17.40;1.00
14252;DHT22;7210;51.502;10.722;2022-07-23T00:08:08;17.40;1.00
14252;DHT22;7210;51.502;10.722;2022-07-23T00:10:40;17.40;1.00
14252;DHT22;7210;51.502;10.722;2022-07-23T00:13:09;17.40;1.00
14252;DHT22;7210;51.502;10.722;2022-07-23T00:15:37;17.60;1.00
14252;DHT22;7210;51.502;10.722;2022-07-23T00:18:04;17.60;1.00
14252;DHT22;7210;51.502;10.722;2022-07-23T00:20:31;17.60;1.00
14252;DHT22;7210;51.502;10.722;2022-07-23T00:22:58;17.70;1.00
14252;DHT22;7210;51.502;10.722;2022-07-23T00:25:27;17.80;1.00
14252;DHT22;7210;51.502;10.722;2022-07-23T00:27:54;17.90;1.00
14252;DHT22;7210;51.502;10.722;2022-07-23T00:30:24;17.90;1.00
14252;DHT22;7210;51.502;10.722;2022-07-23T00:32:55;17.80;1.00
14252;DHT22;7210;51.502;10.722;2022-07-23T00:35:25;17.80;1.00
14252;DHT22;7210;51.502;10.722;2022-07-23T00:37:53;17.70;1.00
14252;DHT22;7210;51.502;10.722;2022-07-23T00:40:22;17.30;1.00
14252;DHT22;7210;51.502;10.722;2022-07-23T00:42:49;17.00;1.00
14252;DHT22;7210;51.502;10.722;2022-07-23T00:45:18;16.60;1.00
14252;DHT22;7210;51.502;10.722;2022-07-23T00:47:47;16.50;1.00
14252;DHT22;7210;51.502;10.722;2022-07-23T00:50:14;16.40;1.00
14252;DHT22;7210;51.502;10.722;2022-07-23T00:52:43;16.30;1.00
14252;DHT22;7210;51.502;10.722;2022-07-23T00:55:12;16.30;1.00
14252;DHT22;7210;51.502;10.722;2022-07-23T00:57:42;16.20;1.00
14252;DHT22;7210;51.502;10.722;2022-07-23T01:00:11;16.20;1.00
14252;DHT22;7210;51.502;10.722;2022-07-23T01:02:40;16.20;1.00
14252;DHT22;7210;51.502;10.722;2022-07-23T01:05:10;16.10;99.90
14252;DHT22;7210;51.502;10.722;2022-07-23T01:07:38;16.10;99.90
14252;DHT22;7210;51.502;10.722;2022-07-23T01:10:06;16.00;99.90
14252;DHT22;7210;51.502;10.722;2022-07-23T01:12:54;16.00;99.90
14252;DHT22;7210;51.502;10.722;2022-07-23T01:15:22;16.00;99.90
14252;DHT22;7210;51.502;10.722;2022-07-23T01:17:50;16.00;99.90
14252;DHT22;7210;51.502;10.722;2022-07-23T01:20:19;16.00;99.90
14252;DHT22;7210;51.502;10.722;2022-07-23T01:22:49;16.00;99.90
14252;DHT22;7210;51.502;10.722;2022-07-23T01:25:17;16.00;99.90
14252;DHT22;7210;51.502;10.722;2022-07-23T01:27:53;16.00;99.90
14252;DHT22;7210;51.502;10.722;2022-07-23T01:30:21;16.00;99.90
14252;DHT22;7210;51.502;10.722;2022-07-23T01:32:48;16.00;99.90
14252;DHT22;7210;51.502;10.722;2022-07-23T01:35:16;16.00;99.90
14252;DHT22;7210;51.502;10.722;2022-07-23T01:37:43;16.00;99.90
14252;DHT22;7210;51.502;10.722;2022-07-23T01:40:12;16.00;99.90
14252;DHT22;7210;51.502;10.722;2022-07-23T01:42:40;16.10;99.90
14252;DHT22;7210;51.502;10.722;2022-07-23T01:45:10;16.20;99.90
14252;DHT22;7210;51.502;10.722;2022-07-23T01:47:41;16.20;99.90
14252;DHT22;7210;51.502;10.722;2022-07-23T01:50:10;16.20;99.90
14252;DHT22;7210;51.502;10.722;2022-07-23T01:52:56;16.20;99.90
14252;DHT22;7210;51.502;10.722;2022-07-23T01:55:25;16.20;99.90
14252;DHT22;7210;51.502;10.722;2022-07-23T01:57:52;16.20;99.90
14252;DHT22;7210;51.502;10.722;2022-07-23T02:00:22;16.20;99.90
14252;DHT22;7210;51.502;10.722;2022-07-23T02:02:52;16.20;99.90
14252;DHT22;7210;51.502;10.722;2022-07-23T02:05:20;16.10;99.90
14252;DHT22;7210;51.502;10.722;2022-07-23T02:07:47;16.20;99.90
14252;DHT22;7210;51.502;10.722;2022-07-23T02:13:27;16.20;99.90
14252;DHT22;7210;51.502;10.722;2022-07-23T02:15:55;16.20;99.90
14252;DHT22;7210;51.502;10.722;2022-07-23T02:18:22;16.20;99.90
14252;DHT22;7210;51.502;10.722;2022-07-23T02:20:51;16.30;99.90
14252;DHT22;7210;51.502;10.722;2022-07-23T02:23:18;16.30;99.90
14252;DHT22;7210;51.502;10.722;2022-07-23T02:25:45;16.30;99.90
14252;DHT22;7210;51.502;10.722;2022-07-23T02:28:14;16.30;99.90
14252;DHT22;7210;51.502;10.722;2022-07-23T02:30:43;16.20;99.90
14252;DHT22;7210;51.502;10.722;2022-07-23T02:33:10;16.20;99.90
14252;DHT22;7210;51.502;10.722;2022-07-23T02:35:45;16.10;99.90
14252;DHT22;7210;51.502;10.722;2022-07-23T02:38:13;16.10;99.90
14252;DHT22;7210;51.502;10.722;2022-07-23T02:40:40;16.10;99.90
14252;DHT22;7210;51.502;10.722;2022-07-23T02:43:08;16.20;99.90
14252;DHT22;7210;51.502;10.722;2022-07-23T02:45:35;16.10;99.90
14252;DHT22;7210;51.502;10.722;2022-07-23T02:48:04;16.10;99.90
14252;DHT22;7210;51.502;10.722;2022-07-23T02:50:32;16.10;99.90
14252;DHT22;7210;51.502;10.722;2022-07-23T02:53:03;16.10;99.90
14252;DHT22;7210;51.502;10.722;2022-07-23T02:55:33;16.10;99.90
14252;DHT22;7210;51.502;10.722;2022-07-23T02:58:02;16.10;99.90
14252;DHT22;7210;51.502;10.722;2022-07-23T03:00:29;16.10;99.90
14252;DHT22;7210;51.502;10.722;2022-07-23T03:03:04;16.10;99.90
14252;DHT22;7210;51.502;10.722;2022-07-23T03:05:32;16.10;99.90
14252;DHT22;7210;51.502;10.722;2022-07-23T03:08:00;16.10;99.90
14252;DHT22;7210;51.502;10.722;2022-07-23T03:10:27;16.10;99.90
14252;DHT22;7210;51.502;10.722;2022-07-23T03:12:54;16.10;99.90
14252;DHT22;7210;51.502;10.722;2022-07-23T03:15:22;16.10;99.90
14252;DHT22;7210;51.502;10.722;2022-07-23T03:17:49;16.10;99.90
14252;DHT22;7210;51.502;10.722;2022-07-23T03:20:18;16.10;99.90
14252;DHT22;7210;51.502;10.722;2022-07-23T03:22:45;16.10;99.90
14252;DHT22;7210;51.502;10.722;2022-07-23T03:25:12;16.10;99.90
14252;DHT22;7210;51.502;10.722;2022-07-23T03:27:40;16.10;99.90
14252;DHT22;7210;51.502;10.722;2022-07-23T03:30:09;16.20;99.90
14252;DHT22;7210;51.502;10.722;2022-07-23T03:32:37;16.20;99.90
14252;DHT22;7210;51.502;10.722;2022-07-23T03:35:09;16.20;99.90
14252;DHT22;7210;51.502;10.722;2022-07-23T03:37:44;16.20;99.90
14252;DHT22;7210;51.502;10.722;2022-07-23T03:40:12;16.30;99.90
14252;DHT22;7210;51.502;10.722;2022-07-23T03:42:39;16.20;99.90
14252;DHT22;7210;51.502;10.722;2022-07-23T03:45:08;16.20;99.90
14252;DHT22;7210;51.502;10.722;2022-07-23T03:47:39;16.20;99.90
14252;DHT22;7210;51.502;10.722;2022-07-23T03:50:07;16.20;99.90
14252;DHT22;7210;51.502;10.722;2022-07-23T03:52:39;16.20;99.90
14252;DHT22;7210;51.502;10.722;2022-07-23T03:55:08;16.20;99.90
14252;DHT22;7210;51.502;10.722;2022-07-23T03:57:36;16.30;99.90
14252;DHT22;7210;51.502;10.722;2022-07-23T04:00:04;16.20;99.90
14252;DHT22;7210;51.502;10.722;2022-07-23T04:02:39;16.20;99.90
14252;DHT22;7210;51.502;10.722;2022-07-23T04:05:09;16.20;99.90
14252;DHT22;7210;51.502;10.722;2022-07-23T04:07:37;16.20;99.90
14252;DHT22;7210;51.502;10.722;2022-07-23T04:10:06;16.30;99.90
14252;DHT22;7210;51.502;10.722;2022-07-23T04:12:35;16.20;99.90
14252;DHT22;7210;51.502;10.722;2022-07-23T04:15:04;16.20;99.90
14252;DHT22;7210;51.502;10.722;2022-07-23T04:17:39;16.20;99.90
14252;DHT22;7210;51.502;10.722;2022-07-23T04:20:07;16.20;99.90
14252;DHT22;7210;51.502;10.722;2022-07-23T04:22:43;16.20;99.90
14252;DHT22;7210;51.502;10.722;2022-07-23T04:25:12;16.30;99.90
14252;DHT22;7210;51.502;10.722;2022-07-23T04:27:43;16.20;99.90
14252;DHT22;7210;51.502;10.722;2022-07-23T04:30:11;16.20;99.90
14252;DHT22;7210;51.502;10.722;2022-07-23T04:32:39;16.20;99.90
14252;DHT22;7210;51.502;10.722;2022-07-23T04:35:15;16.20;99.90
14252;DHT22;7210;51.502;10.722;2022-07-23T04:37:42;16.30;99.90
14252;DHT22;7210;51.502;10.722;2022-07-23T04:40:12;16.30;99.90
14252;DHT22;7210;51.502;10.722;2022-07-23T04:42:40;16.20;99.90
14252;DHT22;7210;51.502;10.722;2022-07-23T04:45:08;16.40;99.90
14252;DHT22;7210;51.502;10.722;2022-07-23T04:47:37;16.80;16.90
14252;DHT22;7210;51.502;10.722;2022-07-23T04:50:04;16.80;99.90
14252;DHT22;7210;51.502;10.722;2022-07-23T04:52:32;16.70;99.90
14252;DHT22;7210;51.502;10.722;2022-07-23T04:54:59;16.70;99.90
14252;DHT22;7210;51.502;10.722;2022-07-23T04:57:28;16.50;99.90
14252;DHT22;7210;51.502;10.722;2022-07-23T04:59:56;16.40;99.90
14252;DHT22;7210;51.502;10.722;2022-07-23T05:02:27;16.40;99.90
14252;DHT22;7210;51.502;10.722;2022-07-23T05:04:57;16.40;99.90
14252;DHT22;7210;51.502;10.722;2022-07-23T05:07:28;16.30;99.90
14252;DHT22;7210;51.502;10.722;2022-07-23T05:10:03;16.30;99.90
14252;DHT22;7210;51.502;10.722;2022-07-23T05:12:37;16.30;99.90
14252;DHT22;7210;51.502;10.722;2022-07-23T05:15:05;16.30;99.90
14252;DHT22;7210;51.502;10.722;2022-07-23T05:17:33;16.30;99.90
14252;DHT22;7210;51.502;10.722;2022-07-23T05:20:04;16.40;99.90
14252;DHT22;7210;51.502;10.722;2022-07-23T05:22:32;16.40;99.90
14252;DHT22;7210;51.502;10.722;2022-07-23T05:25:00;16.40;99.90
14252;DHT22;7210;51.502;10.722;2022-07-23T05:27:27;16.40;99.90
14252;DHT22;7210;51.502;10.722;2022-07-23T05:29:57;16.40;99.90
14252;DHT22;7210;51.502;10.722;2022-07-23T05:32:27;16.40;99.90
14252;DHT22;7210;51.502;10.722;2022-07-23T05:35:09;16.50;99.90
14252;DHT22;7210;51.502;10.722;2022-07-23T05:37:44;16.50;99.90
14252;DHT22;7210;51.502;10.722;2022-07-23T05:40:12;16.50;99.90
14252;DHT22;7210;51.502;10.722;2022-07-23T05:42:41;16.50;99.90
14252;DHT22;7210;51.502;10.722;2022-07-23T05:45:11;16.50;99.90
14252;DHT22;7210;51.502;10.722;2022-07-23T05:47:43;16.60;99.90
14252;DHT22;7210;51.502;10.722;2022-07-23T05:50:15;16.60;99.90
14252;DHT22;7210;51.502;10.722;2022-07-23T05:52:51;16.60;99.90
14252;DHT22;7210;51.502;10.722;2022-07-23T05:55:27;16.60;99.90
14252;DHT22;7210;51.502;10.722;2022-07-23T05:57:58;16.60;99.90
14252;DHT22;7210;51.502;10.722;2022-07-23T06:00:29;16.60;99.90
14252;DHT22;7210;51.502;10.722;2022-07-23T06:02:57;16.70;99.90
14252;DHT22;7210;51.502;10.722;2022-07-23T06:05:33;16.70;99.90
14252;DHT22;7210;51.502;10.722;2022-07-23T06:08:03;16.70;99.90
14252;DHT22;7210;51.502;10.722;2022-07-23T06:10:33;16.70;99.90
14252;DHT22;7210;51.502;10.722;2022-07-23T06:13:00;16.70;99.90
14252;DHT22;7210;51.502;10.722;2022-07-23T06:15:29;16.70;99.90
14252;DHT22;7210;51.502;10.722;2022-07-23T06:18:03;16.70;99.90
14252;DHT22;7210;51.502;10.722;2022-07-23T06:20:30;16.80;99.90
14252;DHT22;7210;51.502;10.722;2022-07-23T06:22:58;16.80;99.90
14252;DHT22;7210;51.502;10.722;2022-07-23T06:25:25;16.90;99.90
14252;DHT22;7210;51.502;10.722;2022-07-23T06:27:57;17.00;99.90
14252;DHT22;7210;51.502;10.722;2022-07-23T06:30:26;17.00;99.90
14252;DHT22;7210;51.502;10.722;2022-07-23T06:32:54;17.10;99.90
14252;DHT22;7210;51.502;10.722;2022-07-23T06:35:22;17.10;99.90
14252;DHT22;7210;51.502;10.722;2022-07-23T06:37:49;17.30;99.90
14252;DHT22;7210;51.502;10.722;2022-07-23T06:40:16;17.30;99.90
14252;DHT22;7210;51.502;10.722;2022-07-23T06:42:44;17.30;99.90
14252;DHT22;7210;51.502;10.722;2022-07-23T06:45:21;17.30;99.90
14252;DHT22;7210;51.502;10.722;2022-07-23T06:47:48;17.30;99.90
14252;DHT22;7210;51.502;10.722;2022-07-23T06:50:17;17.40;99.90
14252;DHT22;7210;51.502;10.722;2022-07-23T06:52:44;17.40;99.90
14252;DHT22;7210;51.502;10.722;2022-07-23T06:55:12;17.60;99.90
14252;DHT22;7210;51.502;10.722;2022-07-23T06:57:39;17.60;99.90
14252;DHT22;7210;51.502;10.722;2022-07-23T07:00:07;17.70;99.90
14252;DHT22;7210;51.502;10.722;2022-07-23T07:02:35;17.80;99.90
14252;DHT22;7210;51.502;10.722;2022-07-23T07:05:04;18.00;99.90
14252;DHT22;7210;51.502;10.722;2022-07-23T07:07:33;18.00;99.90
14252;DHT22;7210;51.502;10.722;2022-07-23T07:10:01;18.20;99.90
14252;DHT22;7210;51.502;10.722;2022-07-23T07:12:28;18.20;1.00
14252;DHT22;7210;51.502;10.722;2022-07-23T07:14:55;18.30;1.00
14252;DHT22;7210;51.502;10.722;2022-07-23T07:17:23;18.40;1.00
14252;DHT22;7210;51.502;10.722;2022-07-23T07:19:50;18.60;99.90
14252;DHT22;7210;51.502;10.722;2022-07-23T07:22:17;18.70;1.40
14252;DHT22;7210;51.502;10.722;2022-07-23T07:24:46;18.80;1.00
14252;DHT22;7210;51.502;10.722;2022-07-23T07:27:13;19.00;1.00
14252;DHT22;7210;51.502;10.722;2022-07-23T07:29:40;19.20;1.40
14252;DHT22;7210;51.502;10.722;2022-07-23T07:32:08;19.50;1.00
14252;DHT22;7210;51.502;10.722;2022-07-23T07:34:35;19.40;1.00
14252;DHT22;7210;51.502;10.722;2022-07-23T07:37:02;19.50;1.00
14252;DHT22;7210;51.502;10.722;2022-07-23T07:39:29;19.60;1.00
14252;DHT22;7210;51.502;10.722;2022-07-23T07:41:58;19.70;1.00
14252;DHT22;7210;51.502;10.722;2022-07-23T07:44:27;19.70;1.00
14252;DHT22;7210;51.502;10.722;2022-07-23T07:46:54;19.60;1.00
14252;DHT22;7210;51.502;10.722;2022-07-23T07:49:21;19.70;1.00
14252;DHT22;7210;51.502;10.722;2022-07-23T07:51:49;19.60;1.00
14252;DHT22;7210;51.502;10.722;2022-07-23T07:54:21;19.60;1.00
14252;DHT22;7210;51.502;10.722;2022-07-23T07:56:48;19.70;1.00
14252;DHT22;7210;51.502;10.722;2022-07-23T07:59:17;19.60;1.00
14252;DHT22;7210;51.502;10.722;2022-07-23T08:01:44;19.70;1.00
14252;DHT22;7210;51.502;10.722;2022-07-23T08:04:11;19.80;1.00
14252;DHT22;7210;51.502;10.722;2022-07-23T08:06:38;19.90;1.00
14252;DHT22;7210;51.502;10.722;2022-07-23T08:09:06;19.80;1.00
14252;DHT22;7210;51.502;10.722;2022-07-23T08:11:33;19.80;1.00
14252;DHT22;7210;51.502;10.722;2022-07-23T08:14:00;19.90;1.00
14252;DHT22;7210;51.502;10.722;2022-07-23T08:16:29;19.80;1.00
14252;DHT22;7210;51.502;10.722;2022-07-23T08:18:56;19.90;1.00
14252;DHT22;7210;51.502;10.722;2022-07-23T08:21:23;19.90;1.00
14252;DHT22;7210;51.502;10.722;2022-07-23T08:23:50;19.80;1.00
14252;DHT22;7210;51.502;10.722;2022-07-23T08:26:18;19.60;1.00
14252;DHT22;7210;51.502;10.722;2022-07-23T08:28:45;19.60;1.00
14252;DHT22;7210;51.502;10.722;2022-07-23T08:31:15;19.70;1.00
14252;DHT22;7210;51.502;10.722;2022-07-23T08:33:44;19.60;1.00
14252;DHT22;7210;51.502;10.722;2022-07-23T08:36:12;19.60;1.00
14252;DHT22;7210;51.502;10.722;2022-07-23T08:38:39;19.70;1.00
14252;DHT22;7210;51.502;10.722;2022-07-23T08:41:07;19.80;1.00
14252;DHT22;7210;51.502;10.722;2022-07-23T08:43:35;19.80;1.00
14252;DHT22;7210;51.502;10.722;2022-07-23T08:46:03;20.00;1.00
14252;DHT22;7210;51.502;10.722;2022-07-23T08:48:32;20.30;1.00
14252;DHT22;7210;51.502;10.722;2022-07-23T08:51:05;20.30;1.00
14252;DHT22;7210;51.502;10.722;2022-07-23T08:53:34;20.20;1.00
14252;DHT22;7210;51.502;10.722;2022-07-23T08:56:04;20.10;1.00
14252;DHT22;7210;51.502;10.722;2022-07-23T08:58:32;19.90;1.00
14252;DHT22;7210;51.502;10.722;2022-07-23T09:01:00;19.90;1.00
14252;DHT22;7210;51.502;10.722;2022-07-23T09:03:29;19.90;1.00
14252;DHT22;7210;51.502;10.722;2022-07-23T09:05:59;20.00;1.00
14252;DHT22;7210;51.502;10.722;2022-07-23T09:08:35;20.00;1.00
14252;DHT22;7210;51.502;10.722;2022-07-23T09:11:05;19.90;1.00
14252;DHT22;7210;51.502;10.722;2022-07-23T09:13:37;20.10;1.00
14252;DHT22;7210;51.502;10.722;2022-07-23T09:16:08;20.10;1.00
14252;DHT22;7210;51.502;10.722;2022-07-23T09:18:44;20.10;1.00
14252;DHT22;7210;51.502;10.722;2022-07-23T09:21:22;20.00;1.00
14252;DHT22;7210;51.502;10.722;2022-07-23T09:23:56;20.10;1.00
14252;DHT22;7210;51.502;10.722;2022-07-23T09:26:32;20.30;1.00
14252;DHT22;7210;51.502;10.722;2022-07-23T09:29:06;20.40;1.00
14252;DHT22;7210;51.502;10.722;2022-07-23T09:31:47;20.50;1.00
14252;DHT22;7210;51.502;10.722;2022-07-23T09:34:18;20.60;1.00
14252;DHT22;7210;51.502;10.722;2022-07-23T09:36:47;20.70;1.00
14252;DHT22;7210;51.502;10.722;2022-07-23T09:39:24;20.70;1.00
14252;DHT22;7210;51.502;10.722;2022-07-23T09:41:53;20.90;1.00
14252;DHT22;7210;51.502;10.722;2022-07-23T09:44:21;21.20;1.00
14252;DHT22;7210;51.502;10.722;2022-07-23T09:46:50;21.30;1.00
14252;DHT22;7210;51.502;10.722;2022-07-23T09:49:24;21.40;1.00
14252;DHT22;7210;51.502;10.722;2022-07-23T09:51:53;21.60;1.00
14252;DHT22;7210;51.502;10.722;2022-07-23T09:54:32;21.70;1.00
14252;DHT22;7210;51.502;10.722;2022-07-23T09:57:04;21.70;1.00
14252;DHT22;7210;51.502;10.722;2022-07-23T09:59:36;21.70;1.00
14252;DHT22;7210;51.502;10.722;2022-07-23T10:02:06;21.70;1.00
14252;DHT22;7210;51.502;10.722;2022-07-23T10:04:47;21.80;1.00
14252;DHT22;7210;51.502;10.722;2022-07-23T10:07:26;22.00;1.00
14252;DHT22;7210;51.502;10.722;2022-07-23T10:10:15;22.10;1.00
14252;DHT22;7210;51.502;10.722;2022-07-23T10:13:02;22.30;1.00
14252;DHT22;7210;51.502;10.722;2022-07-23T10:16:01;22.50;1.00
14252;DHT22;7210;51.502;10.722;2022-07-23T10:18:30;22.60;1.00
14252;DHT22;7210;51.502;10.722;2022-07-23T10:20:58;22.70;1.00
14252;DHT22;7210;51.502;10.722;2022-07-23T10:23:31;22.90;1.00
14252;DHT22;7210;51.502;10.722;2022-07-23T10:26:11;22.80;1.00
14252;DHT22;7210;51.502;10.722;2022-07-23T10:28:57;22.70;1.00
14252;DHT22;7210;51.502;10.722;2022-07-23T10:31:42;22.70;1.00
14252;DHT22;7210;51.502;10.722;2022-07-23T10:34:23;22.70;1.00
14252;DHT22;7210;51.502;10.722;2022-07-23T10:37:01;22.70;1.00
14252;DHT22;7210;51.502;10.722;2022-07-23T10:39:39;23.00;1.00
14252;DHT22;7210;51.502;10.722;2022-07-23T10:42:12;23.10;1.00
14252;DHT22;7210;51.502;10.722;2022-07-23T10:44:45;23.20;1.00
14252;DHT22;7210;51.502;10.722;2022-07-23T10:47:30;23.30;1.00
14252;DHT22;7210;51.502;10.722;2022-07-23T10:50:25;23.40;1.00
14252;DHT22;7210;51.502;10.722;2022-07-23T10:53:18;23.50;1.00
14252;DHT22;7210;51.502;10.722;2022-07-23T10:56:04;23.30;1.00
14252;DHT22;7210;51.502;10.722;2022-07-23T10:58:52;23.40;1.00
14252;DHT22;7210;51.502;10.722;2022-07-23T11:01:34;23.50;1.00
14252;DHT22;7210;51.502;10.722;2022-07-23T11:04:03;23.40;1.00
14252;DHT22;7210;51.502;10.722;2022-07-23T11:07:07;23.50;1.00
14252;DHT22;7210;51.502;10.722;2022-07-23T11:09:42;23.50;1.00
14252;DHT22;7210;51.502;10.722;2022-07-23T11:12:34;23.60;1.00
14252;DHT22;7210;51.502;10.722;2022-07-23T11:15:06;23.80;1.00
14252;DHT22;7210;51.502;10.722;2022-07-23T11:17:59;23.90;1.00
14252;DHT22;7210;51.502;10.722;2022-07-23T11:20:42;23.80;1.00
14252;DHT22;7210;51.502;10.722;2022-07-23T11:23:09;23.70;1.00
14252;DHT22;7210;51.502;10.722;2022-07-23T11:25:40;23.70;1.00
14252;DHT22;7210;51.502;10.722;2022-07-23T11:28:18;23.70;1.00
14252;DHT22;7210;51.502;10.722;2022-07-23T11:30:48;23.90;1.00
14252;DHT22;7210;51.502;10.722;2022-07-23T11:33:17;24.00;1.00
14252;DHT22;7210;51.502;10.722;2022-07-23T11:35:59;24.00;1.00
14252;DHT22;7210;51.502;10.722;2022-07-23T11:38:31;24.00;1.00
14252;DHT22;7210;51.502;10.722;2022-07-23T11:40:59;24.10;1.00
14252;DHT22;7210;51.502;10.722;2022-07-23T11:43:26;24.20;1.00
14252;DHT22;7210;51.502;10.722;2022-07-23T11:45:59;24.20;1.00
14252;DHT22;7210;51.502;10.722;2022-07-23T11:48:30;24.30;1.50
14252;DHT22;7210;51.502;10.722;2022-07-23T11:50:58;24.10;2.40
14252;DHT22;7210;51.502;10.722;2022-07-23T11:53:27;24.20;1.00
14252;DHT22;7210;51.502;10.722;2022-07-23T11:56:03;24.30;5.60
14252;DHT22;7210;51.502;10.722;2022-07-23T11:58:33;24.40;5.40
14252;DHT22;7210;51.502;10.722;2022-07-23T12:01:02;24.40;6.10
14252;DHT22;7210;51.502;10.722;2022-07-23T12:03:29;24.40;7.10
14252;DHT22;7210;51.502;10.722;2022-07-23T12:05:57;24.60;7.40
14252;DHT22;7210;51.502;10.722;2022-07-23T12:08:26;24.70;9.90
14252;DHT22;7210;51.502;10.722;2022-07-23T12:10:53;24.70;1.00
14252;DHT22;7210;51.502;10.722;2022-07-23T12:13:21;24.70;10.70
14252;DHT22;7210;51.502;10.722;2022-07-23T12:15:51;24.80;12.70
14252;DHT22;7210;51.502;10.722;2022-07-23T12:18:23;24.70;12.80
14252;DHT22;7210;51.502;10.722;2022-07-23T12:20:53;24.80;13.70
14252;DHT22;7210;51.502;10.722;2022-07-23T12:23:24;24.90;15.10
14252;DHT22;7210;51.502;10.722;2022-07-23T12:25:53;25.00;14.40
14252;DHT22;7210;51.502;10.722;2022-07-23T12:28:26;25.20;17.30
14252;DHT22;7210;51.502;10.722;2022-07-23T12:30:58;25.20;16.90
14252;DHT22;7210;51.502;10.722;2022-07-23T12:33:28;25.30;18.10
14252;DHT22;7210;51.502;10.722;2022-07-23T12:35:58;25.30;20.90
14252;DHT22;7210;51.502;10.722;2022-07-23T12:38:27;25.50;21.30
14252;DHT22;7210;51.502;10.722;2022-07-23T12:41:03;25.80;24.30
14252;DHT22;7210;51.502;10.722;2022-07-23T12:43:36;25.90;28.50
14252;DHT22;7210;51.502;10.722;2022-07-23T12:46:05;25.90;29.10
14252;DHT22;7210;51.502;10.722;2022-07-23T12:48:37;26.00;28.80
14252;DHT22;7210;51.502;10.722;2022-07-23T12:51:13;26.00;29.40
14252;DHT22;7210;51.502;10.722;2022-07-23T12:53:47;26.10;30.10
14252;DHT22;7210;51.502;10.722;2022-07-23T12:56:26;26.20;33.80
14252;DHT22;7210;51.502;10.722;2022-07-23T12:59:07;26.30;35.50
14252;DHT22;7210;51.502;10.722;2022-07-23T13:01:42;26.40;36.40
14252;DHT22;7210;51.502;10.722;2022-07-23T13:04:18;26.40;38.80
14252;DHT22;7210;51.502;10.722;2022-07-23T13:06:50;26.20;37.10
14252;DHT22;7210;51.502;10.722;2022-07-23T13:09:20;25.80;33.50
14252;DHT22;7210;51.502;10.722;2022-07-23T13:11:49;25.60;30.80
14252;DHT22;7210;51.502;10.722;2022-07-23T13:14:18;25.50;30.30
14252;DHT22;7210;51.502;10.722;2022-07-23T13:16:47;25.40;29.50
14252;DHT22;7210;51.502;10.722;2022-07-23T13:19:17;25.50;30.60
14252;DHT22;7210;51.502;10.722;2022-07-23T13:21:45;25.70;32.70
14252;DHT22;7210;51.502;10.722;2022-07-23T13:24:13;25.90;32.70
14252;DHT22;7210;51.502;10.722;2022-07-23T13:26:41;26.10;36.60
14252;DHT22;7210;51.502;10.722;2022-07-23T13:29:08;26.30;43.30
14252;DHT22;7210;51.502;10.722;2022-07-23T13:31:45;26.40;47.80
14252;DHT22;7210;51.502;10.722;2022-07-23T13:34:13;26.00;38.30
14252;DHT22;7210;51.502;10.722;2022-07-23T13:36:41;25.90;38.70
14252;DHT22;7210;51.502;10.722;2022-07-23T13:39:09;25.80;38.60
14252;DHT22;7210;51.502;10.722;2022-07-23T13:41:37;25.80;36.20
14252;DHT22;7210;51.502;10.722;2022-07-23T13:44:05;25.70;35.70
14252;DHT22;7210;51.502;10.722;2022-07-23T13:46:33;25.80;35.00
14252;DHT22;7210;51.502;10.722;2022-07-23T13:49:00;25.90;37.80
14252;DHT22;7210;51.502;10.722;2022-07-23T13:51:28;25.90;39.80
14252;DHT22;7210;51.502;10.722;2022-07-23T13:53:57;25.90;38.50
14252;DHT22;7210;51.502;10.722;2022-07-23T13:56:25;26.00;40.30
14252;DHT22;7210;51.502;10.722;2022-07-23T13:58:52;26.20;45.20
14252;DHT22;7210;51.502;10.722;2022-07-23T14:01:19;26.20;45.40
14252;DHT22;7210;51.502;10.722;2022-07-23T14:03:46;26.00;40.80
14252;DHT22;7210;51.502;10.722;2022-07-23T14:06:14;26.10;44.10
14252;DHT22;7210;51.502;10.722;2022-07-23T14:08:41;26.10;42.90
14252;DHT22;7210;51.502;10.722;2022-07-23T14:11:12;26.10;45.90
14252;DHT22;7210;51.502;10.722;2022-07-23T14:13:39;26.10;43.30
14252;DHT22;7210;51.502;10.722;2022-07-23T14:16:07;26.10;46.40
14252;DHT22;7210;51.502;10.722;2022-07-23T14:18:34;26.30;47.90
14252;DHT22;7210;51.502;10.722;2022-07-23T14:21:02;26.40;53.50
14252;DHT22;7210;51.502;10.722;2022-07-23T14:23:30;26.50;54.40
14252;DHT22;7210;51.502;10.722;2022-07-23T14:26:03;26.60;54.30
14252;DHT22;7210;51.502;10.722;2022-07-23T14:28:34;26.20;51.50
14252;DHT22;7210;51.502;10.722;2022-07-23T14:31:01;26.00;48.80
14252;DHT22;7210;51.502;10.722;2022-07-23T14:33:28;25.90;44.60
14252;DHT22;7210;51.502;10.722;2022-07-23T14:35:55;26.00;45.80
14252;DHT22;7210;51.502;10.722;2022-07-23T14:38:24;26.20;49.40
14252;DHT22;7210;51.502;10.722;2022-07-23T14:40:52;26.30;53.90
14252;DHT22;7210;51.502;10.722;2022-07-23T14:43:19;26.60;56.60
14252;DHT22;7210;51.502;10.722;2022-07-23T14:45:47;26.70;59.50
14252;DHT22;7210;51.502;10.722;2022-07-23T14:48:15;26.80;60.20
14252;DHT22;7210;51.502;10.722;2022-07-23T14:50:43;26.80;67.60
14252;DHT22;7210;51.502;10.722;2022-07-23T14:53:10;26.80;58.60
14252;DHT22;7210;51.502;10.722;2022-07-23T14:55:37;26.90;63.80
14252;DHT22;7210;51.502;10.722;2022-07-23T14:58:04;26.80;62.80
14252;DHT22;7210;51.502;10.722;2022-07-23T15:00:32;26.80;63.30
14252;DHT22;7210;51.502;10.722;2022-07-23T15:03:00;26.60;58.80
14252;DHT22;7210;51.502;10.722;2022-07-23T15:05:27;26.70;61.90
14252;DHT22;7210;51.502;10.722;2022-07-23T15:07:56;26.80;62.10
14252;DHT22;7210;51.502;10.722;2022-07-23T15:10:24;26.90;63.30
14252;DHT22;7210;51.502;10.722;2022-07-23T15:12:51;26.90;65.40
14252;DHT22;7210;51.502;10.722;2022-07-23T15:15:18;26.80;66.50
14252;DHT22;7210;51.502;10.722;2022-07-23T15:17:46;26.70;64.80
14252;DHT22;7210;51.502;10.722;2022-07-23T15:20:15;26.70;63.70
14252;DHT22;7210;51.502;10.722;2022-07-23T15:22:42;26.70;61.50
14252;DHT22;7210;51.502;10.722;2022-07-23T15:25:11;26.60;62.40
14252;DHT22;7210;51.502;10.722;2022-07-23T15:27:38;26.50;59.40
14252;DHT22;7210;51.502;10.722;2022-07-23T15:30:07;26.40;60.60
14252;DHT22;7210;51.502;10.722;2022-07-23T15:32:39;26.40;58.80
14252;DHT22;7210;51.502;10.722;2022-07-23T15:35:07;26.30;60.60
14252;DHT22;7210;51.502;10.722;2022-07-23T15:37:36;26.40;59.60
14252;DHT22;7210;51.502;10.722;2022-07-23T15:40:09;26.40;58.00
14252;DHT22;7210;51.502;10.722;2022-07-23T15:42:37;26.50;62.00
14252;DHT22;7210;51.502;10.722;2022-07-23T15:45:05;26.60;65.00
14252;DHT22;7210;51.502;10.722;2022-07-23T15:47:33;26.80;66.50
14252;DHT22;7210;51.502;10.722;2022-07-23T15:50:00;27.00;71.60
14252;DHT22;7210;51.502;10.722;2022-07-23T15:52:28;27.20;75.80
14252;DHT22;7210;51.502;10.722;2022-07-23T15:54:56;27.10;73.60
14252;DHT22;7210;51.502;10.722;2022-07-23T15:57:24;27.10;76.20
14252;DHT22;7210;51.502;10.722;2022-07-23T15:59:51;26.90;70.70